sensor_id;sensor_type;location;lat;lon;timestamp;temperature;humidity
21646;DHT22;10984;45.712;4.800;2023-02-28T00:00:29;0.30;99.90
21646;DHT22;10984;45.712;4.800;2023-02-28T00:02:55;0.30;99.90
21646;DHT22;10984;45.712;4.800;2023-02-28T00:05:23;0.30;99.90
21646;DHT22;10984;45.712;4.800;2023-02-28T00:07:50;0.30;99.90
21646;DHT22;10984;45.712;4.800;2023-02-28T00:10:18;0.20;99.90
21646;DHT22;10984;45.712;4.800;2023-02-28T00:12:47;0.20;99.90
21646;DHT22;10984;45.712;4.800;2023-02-28T00:15:12;0.20;99.90
21646;DHT22;10984;45.712;4.800;2023-02-28T00:17:38;0.20;99.90
21646;DHT22;10984;45.712;4.800;2023-02-28T00:20:05;0.20;99.90
21646;DHT22;10984;45.712;4.800;2023-02-28T00:22:51;0.20;99.90
21646;DHT22;10984;45.712;4.800;2023-02-28T00:25:20;0.20;99.90
21646;DHT22;10984;45.712;4.800;2023-02-28T00:27:46;0.20;99.90
21646;DHT22;10984;45.712;4.800;2023-02-28T00:30:15;0.20;99.90
21646;DHT22;10984;45.712;4.800;2023-02-28T00:32:41;0.10;99.90
21646;DHT22;10984;45.712;4.800;2023-02-28T00:35:07;0.10;99.90
21646;DHT22;10984;45.712;4.800;2023-02-28T00:37:33;0.10;99.90
21646;DHT22;10984;45.712;4.800;2023-02-28T00:39:59;0.20;99.90
21646;DHT22;10984;45.712;4.800;2023-02-28T00:42:25;0.20;99.90
21646;DHT22;10984;45.712;4.800;2023-02-28T00:44:51;0.20;99.90
21646;DHT22;10984;45.712;4.800;2023-02-28T00:47:16;0.20;99.90
21646;DHT22;10984;45.712;4.800;2023-02-28T00:49:42;0.20;99.90
21646;DHT22;10984;45.712;4.800;2023-02-28T00:52:07;0.20;99.90
21646;DHT22;10984;45.712;4.800;2023-02-28T00:54:33;0.20;99.90
21646;DHT22;10984;45.712;4.800;2023-02-28T00:56:59;0.20;99.90
21646;DHT22;10984;45.712;4.800;2023-02-28T00:59:25;0.10;99.90
21646;DHT22;10984;45.712;4.800;2023-02-28T01:01:51;0.00;99.90
21646;DHT22;10984;45.712;4.800;2023-02-28T01:04:17;0.00;99.90
21646;DHT22;10984;45.712;4.800;2023-02-28T01:06:43;0.00;99.90
21646;DHT22;10984;45.712;4.800;2023-02-28T01:09:09;0.00;99.90
21646;DHT22;10984;45.712;4.800;2023-02-28T01:11:35;0.00;99.90
21646;DHT22;10984;45.712;4.800;2023-02-28T01:14:01;0.00;99.90
21646;DHT22;10984;45.712;4.800;2023-02-28T01:16:27;0.00;99.90
21646;DHT22;10984;45.712;4.800;2023-02-28T01:18:53;0.00;99.90
21646;DHT22;10984;45.712;4.800;2023-02-28T01:21:20;-0.10;99.90
21646;DHT22;10984;45.712;4.800;2023-02-28T01:23:46;0.00;99.90
21646;DHT22;10984;45.712;4.800;2023-02-28T01:26:31;-0.10;99.90
21646;DHT22;10984;45.712;4.800;2023-02-28T01:28:57;-0.10;99.90
21646;DHT22;10984;45.712;4.800;2023-02-28T01:31:23;0.00;99.90
21646;DHT22;10984;45.712;4.800;2023-02-28T01:33:49;0.00;99.90
21646;DHT22;10984;45.712;4.800;2023-02-28T01:36:33;0.00;99.90
21646;DHT22;10984;45.712;4.800;2023-02-28T01:38:59;0.00;99.90
21646;DHT22;10984;45.712;4.800;2023-02-28T01:41:27;0.10;99.90
21646;DHT22;10984;45.712;4.800;2023-02-28T01:43:59;0.20;99.90
21646;DHT22;10984;45.712;4.800;2023-02-28T01:46:28;0.10;99.90
21646;DHT22;10984;45.712;4.800;2023-02-28T01:49:01;0.10;99.90
21646;DHT22;10984;45.712;4.800;2023-02-28T01:51:31;0.20;99.90
21646;DHT22;10984;45.712;4.800;2023-02-28T01:54:02;0.20;99.90
21646;DHT22;10984;45.712;4.800;2023-02-28T01:56:33;0.10;99.90
21646;DHT22;10984;45.712;4.800;2023-02-28T01:58:59;0.10;99.90
21646;DHT22;10984;45.712;4.800;2023-02-28T02:01:27;0.10;99.90
21646;DHT22;10984;45.712;4.800;2023-02-28T02:04:11;0.00;99.90
21646;DHT22;10984;45.712;4.800;2023-02-28T02:06:42;0.00;99.90
21646;DHT22;10984;45.712;4.800;2023-02-28T02:09:08;-0.10;99.90
21646;DHT22;10984;45.712;4.800;2023-02-28T02:11:34;-0.10;99.90
21646;DHT22;10984;45.712;4.800;2023-02-28T02:14:24;-0.10;99.90
21646;DHT22;10984;45.712;4.800;2023-02-28T02:19:59;-0.20;99.90
21646;DHT22;10984;45.712;4.800;2023-02-28T02:48:49;-0.20;99.90
21646;DHT22;10984;45.712;4.800;2023-02-28T02:51:20;-0.10;99.90
21646;DHT22;10984;45.712;4.800;2023-02-28T02:56:38;0.00;99.90
21646;DHT22;10984;45.712;4.800;2023-02-28T02:59:09;0.00;99.90
21646;DHT22;10984;45.712;4.800;2023-02-28T03:01:38;0.10;99.90
21646;DHT22;10984;45.712;4.800;2023-02-28T03:04:10;0.10;99.90
21646;DHT22;10984;45.712;4.800;2023-02-28T03:06:37;0.20;99.90
21646;DHT22;10984;45.712;4.800;2023-02-28T03:09:02;0.30;99.90
21646;DHT22;10984;45.712;4.800;2023-02-28T03:11:30;0.30;99.90
21646;DHT22;10984;45.712;4.800;2023-02-28T03:23:29;0.40;99.90
21646;DHT22;10984;45.712;4.800;2023-02-28T03:32:24;0.60;99.90
21646;DHT22;10984;45.712;4.800;2023-02-28T03:41:06;0.70;99.90
21646;DHT22;10984;45.712;4.800;2023-02-28T03:43:36;0.70;99.90
21646;DHT22;10984;45.712;4.800;2023-02-28T03:46:07;0.80;99.90
21646;DHT22;10984;45.712;4.800;2023-02-28T03:48:55;0.80;99.90
21646;DHT22;10984;45.712;4.800;2023-02-28T03:51:24;0.80;99.90
21646;DHT22;10984;45.712;4.800;2023-02-28T03:53:54;0.80;99.90
21646;DHT22;10984;45.712;4.800;2023-02-28T03:59:28;0.80;99.90
21646;DHT22;10984;45.712;4.800;2023-02-28T04:01:57;0.80;99.90
21646;DHT22;10984;45.712;4.800;2023-02-28T04:04:24;0.80;99.90
21646;DHT22;10984;45.712;4.800;2023-02-28T04:07:08;0.80;99.90
21646;DHT22;10984;45.712;4.800;2023-02-28T04:09:36;0.80;99.90
21646;DHT22;10984;45.712;4.800;2023-02-28T04:12:02;0.80;99.90
21646;DHT22;10984;45.712;4.800;2023-02-28T04:14:28;0.80;99.90
21646;DHT22;10984;45.712;4.800;2023-02-28T04:16:53;0.80;99.90
21646;DHT22;10984;45.712;4.800;2023-02-28T04:19:19;0.90;99.90
21646;DHT22;10984;45.712;4.800;2023-02-28T04:24:30;1.00;99.90
21646;DHT22;10984;45.712;4.800;2023-02-28T04:26:57;0.90;99.90
21646;DHT22;10984;45.712;4.800;2023-02-28T04:29:42;0.90;99.90
21646;DHT22;10984;45.712;4.800;2023-02-28T04:32:10;0.90;99.90
21646;DHT22;10984;45.712;4.800;2023-02-28T04:34:35;0.80;99.90
21646;DHT22;10984;45.712;4.800;2023-02-28T04:37:01;0.80;99.90
21646;DHT22;10984;45.712;4.800;2023-02-28T04:39:28;0.70;99.90
21646;DHT22;10984;45.712;4.800;2023-02-28T04:41:55;0.70;99.90
21646;DHT22;10984;45.712;4.800;2023-02-28T04:44:21;0.60;99.90
21646;DHT22;10984;45.712;4.800;2023-02-28T04:46:47;0.50;99.90
21646;DHT22;10984;45.712;4.800;2023-02-28T04:49:13;0.60;99.90
21646;DHT22;10984;45.712;4.800;2023-02-28T04:51:39;0.50;99.90
21646;DHT22;10984;45.712;4.800;2023-02-28T04:54:05;0.50;99.90
21646;DHT22;10984;45.712;4.800;2023-02-28T04:56:31;0.50;99.90
21646;DHT22;10984;45.712;4.800;2023-02-28T04:58:57;0.50;99.90
21646;DHT22;10984;45.712;4.800;2023-02-28T05:01:44;0.30;99.90
21646;DHT22;10984;45.712;4.800;2023-02-28T05:04:10;0.20;99.90
21646;DHT22;10984;45.712;4.800;2023-02-28T05:06:36;0.10;99.90
21646;DHT22;10984;45.712;4.800;2023-02-28T05:09:02;0.20;99.90
21646;DHT22;10984;45.712;4.800;2023-02-28T05:11:33;0.20;99.90
21646;DHT22;10984;45.712;4.800;2023-02-28T05:14:17;0.20;99.90
21646;DHT22;10984;45.712;4.800;2023-02-28T05:16:43;0.20;99.90
21646;DHT22;10984;45.712;4.800;2023-02-28T05:19:08;0.20;99.90
21646;DHT22;10984;45.712;4.800;2023-02-28T05:21:36;0.20;99.90
21646;DHT22;10984;45.712;4.800;2023-02-28T05:24:05;0.10;99.90
21646;DHT22;10984;45.712;4.800;2023-02-28T05:26:35;0.10;99.90
21646;DHT22;10984;45.712;4.800;2023-02-28T05:29:02;0.10;99.90
21646;DHT22;10984;45.712;4.800;2023-02-28T05:31:27;0.10;99.90
21646;DHT22;10984;45.712;4.800;2023-02-28T05:33:53;0.10;99.90
21646;DHT22;10984;45.712;4.800;2023-02-28T05:36:21;0.10;99.90
21646;DHT22;10984;45.712;4.800;2023-02-28T05:38:48;0.20;99.90
21646;DHT22;10984;45.712;4.800;2023-02-28T05:41:14;0.20;99.90
21646;DHT22;10984;45.712;4.800;2023-02-28T05:43:40;0.10;99.90
21646;DHT22;10984;45.712;4.800;2023-02-28T05:46:08;0.10;99.90
21646;DHT22;10984;45.712;4.800;2023-02-28T05:48:35;0.00;99.90
21646;DHT22;10984;45.712;4.800;2023-02-28T05:51:02;0.00;99.90
21646;DHT22;10984;45.712;4.800;2023-02-28T05:53:29;0.00;99.90
21646;DHT22;10984;45.712;4.800;2023-02-28T05:55:55;-0.10;99.90
21646;DHT22;10984;45.712;4.800;2023-02-28T05:58:21;0.00;99.90
21646;DHT22;10984;45.712;4.800;2023-02-28T06:00:47;0.00;99.90
21646;DHT22;10984;45.712;4.800;2023-02-28T06:03:13;0.00;99.90
21646;DHT22;10984;45.712;4.800;2023-02-28T06:05:38;0.00;99.90
21646;DHT22;10984;45.712;4.800;2023-02-28T06:08:04;-0.10;99.90
21646;DHT22;10984;45.712;4.800;2023-02-28T06:13:16;-0.30;99.90
21646;DHT22;10984;45.712;4.800;2023-02-28T06:15:42;-0.30;99.90
21646;DHT22;10984;45.712;4.800;2023-02-28T06:18:07;-0.30;99.90
21646;DHT22;10984;45.712;4.800;2023-02-28T06:20:33;-0.40;99.90
21646;DHT22;10984;45.712;4.800;2023-02-28T06:22:59;-0.40;99.90
21646;DHT22;10984;45.712;4.800;2023-02-28T06:25:26;-0.40;99.90
21646;DHT22;10984;45.712;4.800;2023-02-28T06:27:53;-0.40;99.90
21646;DHT22;10984;45.712;4.800;2023-02-28T06:30:19;-0.50;99.90
21646;DHT22;10984;45.712;4.800;2023-02-28T06:32:49;-0.60;99.90
21646;DHT22;10984;45.712;4.800;2023-02-28T06:35:15;-0.60;99.90
21646;DHT22;10984;45.712;4.800;2023-02-28T06:37:40;-0.60;99.90
21646;DHT22;10984;45.712;4.800;2023-02-28T06:40:08;-0.60;99.90
21646;DHT22;10984;45.712;4.800;2023-02-28T06:42:34;-0.60;99.90
21646;DHT22;10984;45.712;4.800;2023-02-28T06:45:00;-0.60;99.90
21646;DHT22;10984;45.712;4.800;2023-02-28T06:47:30;-0.70;99.90
21646;DHT22;10984;45.712;4.800;2023-02-28T06:49:55;-0.60;99.90
21646;DHT22;10984;45.712;4.800;2023-02-28T06:52:21;-0.60;99.90
21646;DHT22;10984;45.712;4.800;2023-02-28T06:54:47;-0.50;99.90
21646;DHT22;10984;45.712;4.800;2023-02-28T06:57:29;-0.40;99.90
21646;DHT22;10984;45.712;4.800;2023-02-28T06:59:59;-0.30;99.90
21646;DHT22;10984;45.712;4.800;2023-02-28T07:02:25;-0.20;99.90
21646;DHT22;10984;45.712;4.800;2023-02-28T07:04:51;0.00;99.90
21646;DHT22;10984;45.712;4.800;2023-02-28T07:07:17;0.20;99.90
21646;DHT22;10984;45.712;4.800;2023-02-28T07:09:42;0.40;99.90
21646;DHT22;10984;45.712;4.800;2023-02-28T07:12:08;0.60;99.90
21646;DHT22;10984;45.712;4.800;2023-02-28T07:14:34;0.80;99.90
21646;DHT22;10984;45.712;4.800;2023-02-28T07:17:01;1.00;99.90
21646;DHT22;10984;45.712;4.800;2023-02-28T07:19:27;1.20;99.90
21646;DHT22;10984;45.712;4.800;2023-02-28T07:21:53;1.40;99.90
21646;DHT22;10984;45.712;4.800;2023-02-28T07:24:19;1.60;99.90
21646;DHT22;10984;45.712;4.800;2023-02-28T07:26:44;1.90;99.90
21646;DHT22;10984;45.712;4.800;2023-02-28T07:29:10;2.10;99.90
21646;DHT22;10984;45.712;4.800;2023-02-28T07:31:36;2.30;99.90
21646;DHT22;10984;45.712;4.800;2023-02-28T07:34:02;2.50;99.90
21646;DHT22;10984;45.712;4.800;2023-02-28T07:36:28;2.70;99.90
21646;DHT22;10984;45.712;4.800;2023-02-28T07:38:54;2.70;99.90
21646;DHT22;10984;45.712;4.800;2023-02-28T07:41:21;2.90;99.90
21646;DHT22;10984;45.712;4.800;2023-02-28T07:43:48;3.00;99.90
21646;DHT22;10984;45.712;4.800;2023-02-28T07:46:15;3.00;99.90
21646;DHT22;10984;45.712;4.800;2023-02-28T07:48:42;3.00;99.90
21646;DHT22;10984;45.712;4.800;2023-02-28T07:51:08;2.90;99.90
21646;DHT22;10984;45.712;4.800;2023-02-28T07:53:33;2.90;99.90
21646;DHT22;10984;45.712;4.800;2023-02-28T07:56:01;2.80;99.90
21646;DHT22;10984;45.712;4.800;2023-02-28T07:58:28;2.80;99.90
21646;DHT22;10984;45.712;4.800;2023-02-28T08:00:55;2.90;99.90
21646;DHT22;10984;45.712;4.800;2023-02-28T08:03:22;2.80;99.90
21646;DHT22;10984;45.712;4.800;2023-02-28T08:05:48;3.00;99.90
21646;DHT22;10984;45.712;4.800;2023-02-28T08:08:15;3.20;99.90
21646;DHT22;10984;45.712;4.800;2023-02-28T08:10:41;3.30;99.90
21646;DHT22;10984;45.712;4.800;2023-02-28T08:13:07;3.40;99.90
21646;DHT22;10984;45.712;4.800;2023-02-28T08:15:33;3.50;99.90
21646;DHT22;10984;45.712;4.800;2023-02-28T08:17:59;3.40;99.90
21646;DHT22;10984;45.712;4.800;2023-02-28T08:20:25;3.20;99.90
21646;DHT22;10984;45.712;4.800;2023-02-28T08:22:51;3.40;99.90
21646;DHT22;10984;45.712;4.800;2023-02-28T08:25:17;3.40;99.90
21646;DHT22;10984;45.712;4.800;2023-02-28T08:27:43;3.10;99.90
21646;DHT22;10984;45.712;4.800;2023-02-28T08:30:27;3.20;99.90
21646;DHT22;10984;45.712;4.800;2023-02-28T08:32:53;3.50;99.90
21646;DHT22;10984;45.712;4.800;2023-02-28T08:35:20;3.50;99.90
21646;DHT22;10984;45.712;4.800;2023-02-28T08:37:48;3.40;99.90
21646;DHT22;10984;45.712;4.800;2023-02-28T08:40:14;3.50;99.90
21646;DHT22;10984;45.712;4.800;2023-02-28T08:42:44;3.60;99.90
21646;DHT22;10984;45.712;4.800;2023-02-28T08:45:11;3.40;99.90
21646;DHT22;10984;45.712;4.800;2023-02-28T08:47:36;3.40;99.90
21646;DHT22;10984;45.712;4.800;2023-02-28T08:50:03;3.50;99.90
21646;DHT22;10984;45.712;4.800;2023-02-28T08:52:28;3.70;99.90
21646;DHT22;10984;45.712;4.800;2023-02-28T08:54:54;3.90;99.90
21646;DHT22;10984;45.712;4.800;2023-02-28T08:57:20;4.20;99.90
21646;DHT22;10984;45.712;4.800;2023-02-28T08:59:46;4.30;99.90
21646;DHT22;10984;45.712;4.800;2023-02-28T09:02:30;4.70;99.90
21646;DHT22;10984;45.712;4.800;2023-02-28T09:04:57;4.50;99.90
21646;DHT22;10984;45.712;4.800;2023-02-28T09:07:23;4.70;99.90
21646;DHT22;10984;45.712;4.800;2023-02-28T09:09:49;4.50;99.90
21646;DHT22;10984;45.712;4.800;2023-02-28T09:12:34;4.60;99.90
21646;DHT22;10984;45.712;4.800;2023-02-28T09:15:01;4.70;99.90
21646;DHT22;10984;45.712;4.800;2023-02-28T09:17:26;4.80;99.90
21646;DHT22;10984;45.712;4.800;2023-02-28T09:19:52;4.90;99.90
21646;DHT22;10984;45.712;4.800;2023-02-28T09:22:17;5.00;99.90
21646;DHT22;10984;45.712;4.800;2023-02-28T09:24:43;4.90;99.90
21646;DHT22;10984;45.712;4.800;2023-02-28T09:27:10;5.00;99.90
21646;DHT22;10984;45.712;4.800;2023-02-28T09:29:36;4.90;99.90
21646;DHT22;10984;45.712;4.800;2023-02-28T09:32:02;5.00;99.90
21646;DHT22;10984;45.712;4.800;2023-02-28T09:34:31;5.10;99.90
21646;DHT22;10984;45.712;4.800;2023-02-28T09:36:56;5.20;99.90
21646;DHT22;10984;45.712;4.800;2023-02-28T09:39:23;5.20;99.90
21646;DHT22;10984;45.712;4.800;2023-02-28T09:41:50;5.20;99.90
21646;DHT22;10984;45.712;4.800;2023-02-28T09:44:37;4.90;99.90
21646;DHT22;10984;45.712;4.800;2023-02-28T09:53:29;4.80;99.90
21646;DHT22;10984;45.712;4.800;2023-02-28T09:56:36;4.90;99.90
21646;DHT22;10984;45.712;4.800;2023-02-28T09:59:32;4.90;99.90
21646;DHT22;10984;45.712;4.800;2023-02-28T10:07:18;5.00;99.90
21646;DHT22;10984;45.712;4.800;2023-02-28T10:09:51;4.90;99.90
21646;DHT22;10984;45.712;4.800;2023-02-28T10:12:20;5.10;99.90
21646;DHT22;10984;45.712;4.800;2023-02-28T10:14:49;5.00;99.90
21646;DHT22;10984;45.712;4.800;2023-02-28T10:20:22;4.90;99.90
21646;DHT22;10984;45.712;4.800;2023-02-28T10:26:12;4.70;99.90
21646;DHT22;10984;45.712;4.800;2023-02-28T10:28:39;4.60;99.90
21646;DHT22;10984;45.712;4.800;2023-02-28T10:31:05;4.70;99.90
21646;DHT22;10984;45.712;4.800;2023-02-28T10:33:34;4.70;99.90
21646;DHT22;10984;45.712;4.800;2023-02-28T10:36:01;5.20;99.90
21646;DHT22;10984;45.712;4.800;2023-02-28T10:38:38;5.30;99.90
21646;DHT22;10984;45.712;4.800;2023-02-28T10:44:25;5.60;99.90
21646;DHT22;10984;45.712;4.800;2023-02-28T10:46:51;5.60;99.90
21646;DHT22;10984;45.712;4.800;2023-02-28T10:49:36;5.50;99.90
21646;DHT22;10984;45.712;4.800;2023-02-28T10:52:08;5.40;99.90
21646;DHT22;10984;45.712;4.800;2023-02-28T10:54:36;5.60;99.90
21646;DHT22;10984;45.712;4.800;2023-02-28T10:57:22;5.70;99.90
21646;DHT22;10984;45.712;4.800;2023-02-28T11:00:25;5.70;99.90
21646;DHT22;10984;45.712;4.800;2023-02-28T11:02:57;5.80;99.90
21646;DHT22;10984;45.712;4.800;2023-02-28T11:05:41;5.90;99.90
21646;DHT22;10984;45.712;4.800;2023-02-28T11:08:26;6.00;99.90
21646;DHT22;10984;45.712;4.800;2023-02-28T11:11:10;6.00;99.90
21646;DHT22;10984;45.712;4.800;2023-02-28T11:13:36;6.00;99.90
21646;DHT22;10984;45.712;4.800;2023-02-28T11:16:21;5.50;99.90
21646;DHT22;10984;45.712;4.800;2023-02-28T11:18:49;5.60;99.90
21646;DHT22;10984;45.712;4.800;2023-02-28T11:21:21;5.50;99.90
21646;DHT22;10984;45.712;4.800;2023-02-28T11:23:47;5.30;99.90
21646;DHT22;10984;45.712;4.800;2023-02-28T11:26:14;5.30;99.90
21646;DHT22;10984;45.712;4.800;2023-02-28T11:28:41;5.40;99.90
21646;DHT22;10984;45.712;4.800;2023-02-28T11:31:26;5.40;99.90
21646;DHT22;10984;45.712;4.800;2023-02-28T11:33:55;5.50;99.90
21646;DHT22;10984;45.712;4.800;2023-02-28T11:36:40;5.50;99.90
21646;DHT22;10984;45.712;4.800;2023-02-28T11:39:11;5.60;99.90
21646;DHT22;10984;45.712;4.800;2023-02-28T11:56:23;5.80;99.90
21646;DHT22;10984;45.712;4.800;2023-02-28T12:22:55;6.50;99.90
21646;DHT22;10984;45.712;4.800;2023-02-28T12:31:24;6.20;99.90
21646;DHT22;10984;45.712;4.800;2023-02-28T12:34:13;6.40;99.90
21646;DHT22;10984;45.712;4.800;2023-02-28T12:36:43;6.30;99.90
21646;DHT22;10984;45.712;4.800;2023-02-28T12:45:22;6.00;99.90
21646;DHT22;10984;45.712;4.800;2023-02-28T12:47:57;6.30;99.90
21646;DHT22;10984;45.712;4.800;2023-02-28T12:50:25;6.40;99.90
21646;DHT22;10984;45.712;4.800;2023-02-28T12:59:11;6.90;99.90
21646;DHT22;10984;45.712;4.800;2023-02-28T13:10:48;6.10;99.90
21646;DHT22;10984;45.712;4.800;2023-02-28T13:13:32;6.20;99.90
21646;DHT22;10984;45.712;4.800;2023-02-28T13:16:17;6.40;99.90
21646;DHT22;10984;45.712;4.800;2023-02-28T13:18:45;6.60;99.90
21646;DHT22;10984;45.712;4.800;2023-02-28T13:21:30;6.70;99.90
21646;DHT22;10984;45.712;4.800;2023-02-28T13:23:59;6.70;99.90
21646;DHT22;10984;45.712;4.800;2023-02-28T13:42:53;6.10;99.90
21646;DHT22;10984;45.712;4.800;2023-02-28T13:45:37;6.00;99.90
21646;DHT22;10984;45.712;4.800;2023-02-28T13:51:00;5.60;99.90
21646;DHT22;10984;45.712;4.800;2023-02-28T14:05:26;5.60;99.90
21646;DHT22;10984;45.712;4.800;2023-02-28T14:07:57;5.70;99.90
21646;DHT22;10984;45.712;4.800;2023-02-28T14:16:23;6.00;99.90
21646;DHT22;10984;45.712;4.800;2023-02-28T14:21:38;6.40;99.90
21646;DHT22;10984;45.712;4.800;2023-02-28T14:39:04;6.50;99.90
21646;DHT22;10984;45.712;4.800;2023-02-28T14:41:49;6.60;99.90
21646;DHT22;10984;45.712;4.800;2023-02-28T14:47:02;6.50;99.90
21646;DHT22;10984;45.712;4.800;2023-02-28T14:49:34;6.30;99.90
21646;DHT22;10984;45.712;4.800;2023-02-28T14:54:53;6.30;99.90
21646;DHT22;10984;45.712;4.800;2023-02-28T15:03:44;6.00;99.90
21646;DHT22;10984;45.712;4.800;2023-02-28T15:06:29;6.00;99.90
21646;DHT22;10984;45.712;4.800;2023-02-28T15:09:15;5.80;99.90
21646;DHT22;10984;45.712;4.800;2023-02-28T15:11:41;6.00;99.90
21646;DHT22;10984;45.712;4.800;2023-02-28T15:14:16;6.00;99.90
21646;DHT22;10984;45.712;4.800;2023-02-28T15:16:44;5.90;99.90
21646;DHT22;10984;45.712;4.800;2023-02-28T15:19:30;6.00;99.90
21646;DHT22;10984;45.712;4.800;2023-02-28T15:22:17;6.00;99.90
21646;DHT22;10984;45.712;4.800;2023-02-28T15:24:47;6.00;99.90
21646;DHT22;10984;45.712;4.800;2023-02-28T15:27:35;6.10;99.90
21646;DHT22;10984;45.712;4.800;2023-02-28T15:33:26;6.00;99.90
21646;DHT22;10984;45.712;4.800;2023-02-28T15:36:02;6.00;99.90
21646;DHT22;10984;45.712;4.800;2023-02-28T15:38:28;5.90;99.90
21646;DHT22;10984;45.712;4.800;2023-02-28T15:40:57;5.70;99.90
21646;DHT22;10984;45.712;4.800;2023-02-28T15:43:42;5.70;99.90
21646;DHT22;10984;45.712;4.800;2023-02-28T15:46:09;5.70;99.90
21646;DHT22;10984;45.712;4.800;2023-02-28T15:48:56;5.60;99.90
21646;DHT22;10984;45.712;4.800;2023-02-28T15:51:40;5.60;99.90
21646;DHT22;10984;45.712;4.800;2023-02-28T15:54:08;5.50;99.90
21646;DHT22;10984;45.712;4.800;2023-02-28T15:56:56;5.50;99.90
21646;DHT22;10984;45.712;4.800;2023-02-28T15:59:42;5.50;99.90
21646;DHT22;10984;45.712;4.800;2023-02-28T16:04:36;5.40;99.90
21646;DHT22;10984;45.712;4.800;2023-02-28T16:07:04;5.40;99.90
21646;DHT22;10984;45.712;4.800;2023-02-28T16:09:30;5.20;99.90
21646;DHT22;10984;45.712;4.800;2023-02-28T16:12:00;5.30;99.90
21646;DHT22;10984;45.712;4.800;2023-02-28T16:14:45;5.20;99.90
21646;DHT22;10984;45.712;4.800;2023-02-28T16:17:23;5.20;99.90
21646;DHT22;10984;45.712;4.800;2023-02-28T16:19:49;5.20;99.90
21646;DHT22;10984;45.712;4.800;2023-02-28T16:22:15;5.20;99.90
21646;DHT22;10984;45.712;4.800;2023-02-28T16:24:41;5.20;99.90
21646;DHT22;10984;45.712;4.800;2023-02-28T16:29:55;5.20;99.90
21646;DHT22;10984;45.712;4.800;2023-02-28T16:32:21;5.20;99.90
21646;DHT22;10984;45.712;4.800;2023-02-28T16:34:46;5.10;99.90
21646;DHT22;10984;45.712;4.800;2023-02-28T16:37:14;5.10;99.90
21646;DHT22;10984;45.712;4.800;2023-02-28T16:39:42;5.10;99.90
21646;DHT22;10984;45.712;4.800;2023-02-28T16:44:55;4.90;99.90
21646;DHT22;10984;45.712;4.800;2023-02-28T16:47:21;4.90;99.90
21646;DHT22;10984;45.712;4.800;2023-02-28T16:49:47;4.80;99.90
21646;DHT22;10984;45.712;4.800;2023-02-28T16:52:13;4.80;99.90
21646;DHT22;10984;45.712;4.800;2023-02-28T16:54:41;4.70;99.90
21646;DHT22;10984;45.712;4.800;2023-02-28T16:57:22;4.70;99.90
21646;DHT22;10984;45.712;4.800;2023-02-28T16:59:49;4.60;99.90
21646;DHT22;10984;45.712;4.800;2023-02-28T17:02:17;4.60;99.90
21646;DHT22;10984;45.712;4.800;2023-02-28T17:04:44;4.50;99.90
21646;DHT22;10984;45.712;4.800;2023-02-28T17:07:28;4.40;99.90
21646;DHT22;10984;45.712;4.800;2023-02-28T17:09:54;4.50;99.90
21646;DHT22;10984;45.712;4.800;2023-02-28T17:12:20;4.40;99.90
21646;DHT22;10984;45.712;4.800;2023-02-28T17:14:45;4.40;99.90
21646;DHT22;10984;45.712;4.800;2023-02-28T17:17:21;4.40;99.90
21646;DHT22;10984;45.712;4.800;2023-02-28T17:19:47;4.30;99.90
21646;DHT22;10984;45.712;4.800;2023-02-28T17:22:13;4.30;99.90
21646;DHT22;10984;45.712;4.800;2023-02-28T17:24:39;4.30;99.90
21646;DHT22;10984;45.712;4.800;2023-02-28T17:27:05;4.30;99.90
21646;DHT22;10984;45.712;4.800;2023-02-28T17:29:33;4.20;99.90
21646;DHT22;10984;45.712;4.800;2023-02-28T17:31:58;4.10;99.90
21646;DHT22;10984;45.712;4.800;2023-02-28T17:34:24;4.10;99.90
21646;DHT22;10984;45.712;4.800;2023-02-28T17:36:51;4.10;99.90
21646;DHT22;10984;45.712;4.800;2023-02-28T17:39:19;4.20;99.90
21646;DHT22;10984;45.712;4.800;2023-02-28T17:41:50;4.20;99.90
21646;DHT22;10984;45.712;4.800;2023-02-28T17:44:17;4.20;99.90
21646;DHT22;10984;45.712;4.800;2023-02-28T17:46:43;4.10;99.90
21646;DHT22;10984;45.712;4.800;2023-02-28T17:49:10;4.10;99.90
21646;DHT22;10984;45.712;4.800;2023-02-28T17:51:35;4.10;99.90
21646;DHT22;10984;45.712;4.800;2023-02-28T17:54:01;4.00;99.90
21646;DHT22;10984;45.712;4.800;2023-02-28T17:56:27;4.10;99.90
21646;DHT22;10984;45.712;4.800;2023-02-28T17:58:54;4.10;99.90
21646;DHT22;10984;45.712;4.800;2023-02-28T18:01:21;4.00;99.90
21646;DHT22;10984;45.712;4.800;2023-02-28T18:03:48;3.90;99.90
21646;DHT22;10984;45.712;4.800;2023-02-28T18:09:27;3.90;99.90
21646;DHT22;10984;45.712;4.800;2023-02-28T18:11:54;3.90;99.90
21646;DHT22;10984;45.712;4.800;2023-02-28T18:14:23;3.90;99.90
21646;DHT22;10984;45.712;4.800;2023-02-28T18:16:50;3.80;99.90
21646;DHT22;10984;45.712;4.800;2023-02-28T18:19:16;3.80;99.90
21646;DHT22;10984;45.712;4.800;2023-02-28T18:21:43;3.90;99.90
21646;DHT22;10984;45.712;4.800;2023-02-28T18:24:10;3.90;99.90
21646;DHT22;10984;45.712;4.800;2023-02-28T18:26:36;3.80;99.90
21646;DHT22;10984;45.712;4.800;2023-02-28T18:29:03;3.80;99.90
21646;DHT22;10984;45.712;4.800;2023-02-28T18:31:28;3.80;99.90
21646;DHT22;10984;45.712;4.800;2023-02-28T18:33:56;3.80;99.90
21646;DHT22;10984;45.712;4.800;2023-02-28T18:36:23;3.70;99.90
21646;DHT22;10984;45.712;4.800;2023-02-28T18:38:49;3.70;99.90
21646;DHT22;10984;45.712;4.800;2023-02-28T18:41:16;3.80;99.90
21646;DHT22;10984;45.712;4.800;2023-02-28T18:43:42;3.80;99.90
21646;DHT22;10984;45.712;4.800;2023-02-28T18:46:10;3.80;99.90
21646;DHT22;10984;45.712;4.800;2023-02-28T18:48:36;3.70;99.90
21646;DHT22;10984;45.712;4.800;2023-02-28T18:51:21;3.70;99.90
21646;DHT22;10984;45.712;4.800;2023-02-28T18:53:47;3.70;99.90
21646;DHT22;10984;45.712;4.800;2023-02-28T18:56:15;3.70;99.90
21646;DHT22;10984;45.712;4.800;2023-02-28T18:58:42;3.70;99.90
21646;DHT22;10984;45.712;4.800;2023-02-28T19:01:27;3.70;99.90
21646;DHT22;10984;45.712;4.800;2023-02-28T19:03:55;3.70;99.90
21646;DHT22;10984;45.712;4.800;2023-02-28T19:06:21;3.70;99.90
21646;DHT22;10984;45.712;4.800;2023-02-28T19:08:51;3.70;99.90
21646;DHT22;10984;45.712;4.800;2023-02-28T19:11:18;3.70;99.90
21646;DHT22;10984;45.712;4.800;2023-02-28T19:13:44;3.70;99.90
21646;DHT22;10984;45.712;4.800;2023-02-28T19:16:12;3.80;99.90
21646;DHT22;10984;45.712;4.800;2023-02-28T19:18:39;3.70;99.90
21646;DHT22;10984;45.712;4.800;2023-02-28T19:21:23;3.70;99.90
21646;DHT22;10984;45.712;4.800;2023-02-28T19:23:50;3.80;99.90
21646;DHT22;10984;45.712;4.800;2023-02-28T19:26:34;3.70;99.90
21646;DHT22;10984;45.712;4.800;2023-02-28T19:29:02;3.70;99.90
21646;DHT22;10984;45.712;4.800;2023-02-28T19:31:28;3.70;99.90
21646;DHT22;10984;45.712;4.800;2023-02-28T19:33:53;3.70;99.90
21646;DHT22;10984;45.712;4.800;2023-02-28T19:36:20;3.80;99.90
21646;DHT22;10984;45.712;4.800;2023-02-28T19:38:46;3.80;99.90
21646;DHT22;10984;45.712;4.800;2023-02-28T19:41:13;3.70;99.90
21646;DHT22;10984;45.712;4.800;2023-02-28T19:43:39;3.70;99.90
21646;DHT22;10984;45.712;4.800;2023-02-28T19:46:06;3.60;99.90
21646;DHT22;10984;45.712;4.800;2023-02-28T19:48:32;3.60;99.90
21646;DHT22;10984;45.712;4.800;2023-02-28T19:50:59;3.60;99.90